Date,TemperatureHighF,TemperatureAvgF,TemperatureLowF,DewpointHighF,DewpointAvgF,DewpointLowF,HumidityHigh,HumidityAvg,HumidityLow,PressureMaxIn,PressureMinIn,WindSpeedMaxMPH,WindSpeedAvgMPH,GustSpeedMaxMPH,PrecipitationSumIn
2013-3-1,65,55,42,23,18,12,39,23,17,30.46,30.33,29,11,29,0.00
2013-3-2,71,55,39,32,25,20,50,33,18,30.36,30.17,22,7,22,0.00
2013-3-3,64,50,42,36,27,19,75,41,21,30.17,29.98,42,18,42,0.00
2013-3-4,59,46,37,43,37,32,87,73,49,30.21,29.98,38,9,38,0.00
2013-3-5,65,48,36,47,36,28,87,67,33,30.21,30.08,25,6,25,0.00
2013-3-6,55,43,36,41,36,29,88,78,53,30.14,30.05,36,14,36,0.00
2013-3-7,44,40,36,40,36,32,88,86,79,30.06,29.94,33,13,33,0.03
2013-3-8,38,34,31,35,30,28,89,88,86,30.12,29.83,39,19,39,0.97
2013-3-9,34,33,33,31,30,30,89,89,88,30.15,30.12,35,18,35,0.38
2013-3-11,67,52,38,39,27,16,80,41,21,30.35,30.16,15,5,28,0.00
2013-3-12,70,54,36,32,27,19,76,40,20,30.24,30.15,22,7,23,0.00
2013-3-13,76,58,40,32,29,23,66,38,15,30.27,30.17,21,6,21,0.00
2013-3-14,79,63,47,43,32,26,68,35,17,30.20,30.09,21,6,21,0.00
2013-3-15,76,59,44,47,38,22,70,49,23,30.12,29.98,27,7,27,0.00
2013-3-16,70,58,49,45,28,11,68,34,19,29.99,29.89,30,12,30,0.00
2013-3-17,72,55,44,48,34,24,77,48,18,30.02,29.91,24,7,24,0.00
2013-3-18,68,53,44,46,34,22,77,49,23,30.10,29.97,24,8,24,0.00
2013-3-19,66,54,45,42,36,25,80,52,36,30.17,30.03,30,10,30,0.00
2013-3-20,67,54,44,44,37,28,74,54,36,30.16,29.97,34,13,35,0.00
2013-3-21,64,53,45,46,40,33,86,64,33,29.98,29.83,39,12,39,0.00
2013-3-22,68,52,37,48,37,22,86,61,19,29.94,29.77,32,9,32,0.00
2013-3-23,65,51,35,34,23,16,74,37,19,30.10,29.93,28,6,28,0.00
2013-3-24,68,50,36,43,29,20,85,51,16,30.11,30.02,14,2,14,0.00
2013-3-25,72,53,37,47,33,22,74,50,19,30.10,29.99,17,3,17,0.00
2013-3-26,67,54,46,42,31,17,78,43,23,30.02,29.93,27,11,27,0.00
2013-3-27,63,52,46,42,32,17,79,47,31,30.06,29.93,31,12,31,0.00
2013-3-28,69,54,42,45,38,28,83,58,32,30.14,30.05,24,7,24,0.00
2013-3-29,71,55,39,50,39,29,83,60,28,30.19,30.12,17,3,17,0.00
2013-3-30,68,55,43,48,41,29,82,60,38,30.16,30.07,25,7,25,0.00
2013-3-31,59,49,42,45,39,24,86,69,42,30.13,30.06,35,15,35,0.00